Time;durP1;ratioP1;P1;durP2;ratioP2;P2;SDS_P1;SDS_P2;PMS_P1;PMS_P2;Temp;Humidity;BMP_temperature;BMP_pressure;BME280_temperature;BME280_humidity;BME280_pressure;Samples;Min_cycle;Max_cycle;Signal;HPM_P1;HPM_P2
2021/09/12 00:01:35;;;;;;;16.83;15.33;;;19.50;99.90;;;;;;5032441;28;20436;-49
2021/09/12 00:04:02;;;;;;;18.67;16.47;;;19.40;99.90;;;;;;5032519;28;21002;-49
2021/09/12 00:06:30;;;;;;;16.70;15.10;;;19.40;99.90;;;;;;5032644;28;20428;-48
2021/09/12 00:08:56;;;;;;;16.83;15.17;;;19.50;99.90;;;;;;5014618;28;20447;-49
2021/09/12 00:11:23;;;;;;;17.33;15.63;;;19.40;99.90;;;;;;5032595;28;20503;-49
2021/09/12 00:13:50;;;;;;;15.47;13.87;;;19.30;99.90;;;;;;5031876;28;20478;-49
2021/09/12 00:16:18;;;;;;;16.53;14.93;;;19.30;99.90;;;;;;5032350;28;20436;-49
2021/09/12 00:18:45;;;;;;;17.20;15.07;;;19.30;99.90;;;;;;5031936;28;20448;-49
2021/09/12 00:21:11;;;;;;;17.60;16.10;;;19.00;99.90;;;;;;5032346;28;20432;-50
2021/09/12 00:23:39;;;;;;;18.90;16.37;;;19.30;99.90;;;;;;5032238;28;20476;-49
2021/09/12 00:26:06;;;;;;;16.30;14.60;;;19.30;99.90;;;;;;5032565;28;20435;-49
2021/09/12 00:28:33;;;;;;;18.50;16.80;;;19.30;99.90;;;;;;5035615;28;20421;-49
2021/09/12 00:30:59;;;;;;;17.53;15.93;;;19.30;99.90;;;;;;5032585;28;20442;-49
2021/09/12 00:33:27;;;;;;;18.37;16.60;;;19.30;99.90;;;;;;5031846;28;20791;-49
2021/09/12 00:35:53;;;;;;;18.87;17.03;;;19.30;99.90;;;;;;5032051;28;20441;-49
2021/09/12 00:38:20;;;;;;;16.13;14.63;;;19.30;99.90;;;;;;5031559;28;20460;-49
2021/09/12 00:40:48;;;;;;;17.67;15.97;;;19.20;99.90;;;;;;5031847;28;20434;-49
2021/09/12 00:43:15;;;;;;;20.03;17.97;;;19.20;99.90;;;;;;5031810;28;20838;-49
2021/09/12 00:45:41;;;;;;;18.23;16.43;;;19.20;99.90;;;;;;5032311;28;20494;-49
2021/09/12 00:48:10;;;;;;;17.77;16.00;;;19.20;99.90;;;;;;5031248;28;20533;-50
2021/09/12 00:50:37;;;;;;;18.87;17.07;;;19.20;99.90;;;;;;5031802;28;20423;-49
2021/09/12 00:53:04;;;;;;;19.57;16.53;;;19.20;99.90;;;;;;5031520;28;20435;-50
2021/09/12 00:55:32;;;;;;;19.60;17.70;;;19.30;99.90;;;;;;5031794;28;20451;-50
2021/09/12 00:58:01;;;;;;;19.40;17.50;;;19.20;99.90;;;;;;5031421;28;20439;-49
2021/09/12 01:00:27;;;;;;;18.80;16.90;;;19.30;99.90;;;;;;5031761;28;21022;-49
2021/09/12 01:02:54;;;;;;;19.27;17.37;;;19.10;99.90;;;;;;5030699;28;20483;-50
2021/09/12 01:05:20;;;;;;;19.43;17.63;;;19.20;99.90;;;;;;5031475;28;20474;-49
2021/09/12 01:07:47;;;;;;;20.10;16.27;;;19.10;99.90;;;;;;5031185;28;20532;-49
2021/09/12 01:10:14;;;;;;;17.57;15.97;;;19.10;99.90;;;;;;5031615;28;20434;-50
2021/09/12 01:12:41;;;;;;;18.83;17.00;;;19.10;99.90;;;;;;5031432;28;20460;-49
2021/09/12 01:15:09;;;;;;;19.60;17.80;;;18.90;99.90;;;;;;5031474;28;20448;-50
2021/09/12 01:17:36;;;;;;;17.77;16.13;;;19.10;99.90;;;;;;5031370;28;20447;-49
2021/09/12 01:20:04;;;;;;;20.03;17.90;;;19.00;99.90;;;;;;5031683;28;20435;-49
2021/09/12 01:22:31;;;;;;;18.93;16.93;;;19.00;99.90;;;;;;5031600;28;20474;-48
2021/09/12 01:24:59;;;;;;;17.73;16.17;;;19.00;99.90;;;;;;5031563;28;20458;-50
2021/09/12 01:27:25;;;;;;;19.90;17.97;;;19.00;99.90;;;;;;5031391;28;20811;-48
2021/09/12 01:29:52;;;;;;;19.73;17.77;;;19.00;99.90;;;;;;5013489;28;20443;-49
2021/09/12 01:32:19;;;;;;;17.30;15.70;;;19.00;99.90;;;;;;5031403;28;20831;-49
2021/09/12 01:34:46;;;;;;;18.67;16.67;;;19.00;99.90;;;;;;5031255;28;20479;-48
2021/09/12 01:37:12;;;;;;;16.97;15.47;;;19.00;99.90;;;;;;5013576;28;20454;-49
2021/09/12 01:39:39;;;;;;;18.67;16.97;;;19.00;99.90;;;;;;5031106;28;20924;-49
2021/09/12 01:42:07;;;;;;;18.20;16.40;;;19.00;99.90;;;;;;5031987;28;20434;-48
2021/09/12 01:44:33;;;;;;;18.10;16.30;;;18.90;99.90;;;;;;5034505;28;20927;-48
2021/09/12 01:47:00;;;;;;;16.60;14.90;;;18.90;99.90;;;;;;5031007;28;20803;-49
2021/09/12 01:49:27;;;;;;;18.43;16.53;;;18.90;99.90;;;;;;5031047;28;20445;-49
2021/09/12 01:51:54;;;;;;;17.30;15.70;;;18.90;99.90;;;;;;5031245;28;20430;-48
2021/09/12 01:54:21;;;;;;;16.00;14.67;;;18.90;99.90;;;;;;5031498;28;20461;-48
2021/09/12 01:56:48;;;;;;;18.60;16.90;;;18.80;99.90;;;;;;5031518;28;20987;-49
2021/09/12 01:59:16;;;;;;;17.07;15.53;;;18.90;99.90;;;;;;5030949;28;20497;-49
2021/09/12 02:01:43;;;;;;;18.10;16.40;;;18.80;99.90;;;;;;5031024;28;20446;-49
2021/09/12 02:04:09;;;;;;;18.40;16.67;;;18.80;99.90;;;;;;5031213;28;20483;-50
2021/09/12 02:06:36;;;;;;;15.30;13.80;;;18.80;99.90;;;;;;5031132;28;20954;-50
2021/09/12 02:09:02;;;;;;;17.90;16.20;;;18.80;99.90;;;;;;5030716;28;20430;-48
2021/09/12 02:11:29;;;;;;;18.53;16.83;;;18.70;99.90;;;;;;5031278;28;20431;-49
2021/09/12 02:13:56;;;;;;;18.90;17.07;;;18.80;99.90;;;;;;5031757;28;20458;-49
2021/09/12 02:16:24;;;;;;;22.10;16.90;;;18.70;99.90;;;;;;5034606;28;20934;-49
2021/09/12 02:18:51;;;;;;;18.77;17.10;;;18.70;99.90;;;;;;5034239;28;20470;-49
2021/09/12 02:21:18;;;;;;;18.07;16.37;;;18.70;99.90;;;;;;5034659;28;20431;-49
2021/09/12 02:23:44;;;;;;;20.63;18.50;;;18.70;99.90;;;;;;5034427;28;20495;-49
2021/09/12 02:26:12;;;;;;;19.43;17.30;;;18.70;99.90;;;;;;5034618;28;20484;-49
2021/09/12 02:28:39;;;;;;;19.33;17.53;;;18.70;99.90;;;;;;5034250;28;20439;-49
2021/09/12 02:31:05;;;;;;;18.37;16.80;;;18.70;99.90;;;;;;5034286;28;20446;-49
2021/09/12 02:33:33;;;;;;;18.50;16.70;;;18.70;99.90;;;;;;5034408;28;20538;-49
2021/09/12 02:36:01;;;;;;;16.20;14.70;;;18.70;99.90;;;;;;5016539;28;20457;-49
2021/09/12 02:38:28;;;;;;;17.67;16.03;;;18.70;99.90;;;;;;5034104;28;20450;-49
2021/09/12 02:40:59;;;;;;;16.33;14.83;;;18.60;99.90;;;;;;5034385;28;20466;-48
2021/09/12 02:43:25;;;;;;;19.47;17.53;;;18.70;99.90;;;;;;5034366;28;20840;-48
2021/09/12 02:45:52;;;;;;;18.50;16.80;;;18.60;99.90;;;;;;5034253;28;20445;-49
2021/09/12 02:48:18;;;;;;;19.17;17.40;;;18.60;99.90;;;;;;5033800;28;20431;-49
2021/09/12 02:50:46;;;;;;;19.73;17.83;;;18.60;99.90;;;;;;5033974;28;20439;-49
2021/09/12 02:53:13;;;;;;;17.80;16.10;;;18.60;99.90;;;;;;5034113;28;20430;-49
2021/09/12 02:55:39;;;;;;;19.63;17.63;;;18.50;99.90;;;;;;5035024;28;20459;-49
2021/09/12 02:58:06;;;;;;;17.00;15.50;;;18.60;99.90;;;;;;5037978;28;20449;-48
2021/09/12 03:00:32;;;;;;;18.27;16.67;;;18.60;99.90;;;;;;5035753;28;20435;-48
2021/09/12 03:02:59;;;;;;;18.77;17.07;;;18.30;99.90;;;;;;5033955;28;20458;-48
2021/09/12 03:05:26;;;;;;;17.40;15.60;;;18.60;99.90;;;;;;5033601;28;20485;-49
2021/09/12 03:07:54;;;;;;;19.50;17.80;;;18.20;99.90;;;;;;5033158;28;20438;-49
2021/09/12 03:10:20;;;;;;;18.80;17.10;;;18.50;99.90;;;;;;5033796;28;20963;-49
2021/09/12 03:12:47;;;;;;;17.37;15.77;;;18.50;99.90;;;;;;5033866;28;20442;-49
2021/09/12 03:15:14;;;;;;;18.40;16.63;;;18.50;99.90;;;;;;5033645;28;20455;-49
2021/09/12 03:17:40;;;;;;;21.80;19.70;;;18.50;99.90;;;;;;5033322;28;20449;-49
2021/09/12 03:20:08;;;;;;;19.20;17.20;;;18.50;99.90;;;;;;5033586;28;20426;-49
2021/09/12 03:22:35;;;;;;;19.37;17.47;;;18.50;99.90;;;;;;5033566;28;20462;-49
2021/09/12 03:25:03;;;;;;;20.03;18.13;;;18.50;99.90;;;;;;5032825;28;20490;-49
2021/09/12 03:27:30;;;;;;;19.13;17.43;;;18.50;99.90;;;;;;5032887;28;20431;-49
2021/09/12 03:29:56;;;;;;;20.93;19.03;;;18.40;99.90;;;;;;5033150;28;20565;-49
2021/09/12 03:32:23;;;;;;;20.20;18.40;;;18.40;99.90;;;;;;5033227;28;20445;-49
2021/09/12 03:34:50;;;;;;;19.80;17.90;;;18.20;99.90;;;;;;5033298;28;20458;-50
2021/09/12 03:37:16;;;;;;;20.83;18.90;;;18.40;99.90;;;;;;5033249;28;20513;-48
2021/09/12 03:39:43;;;;;;;19.07;17.30;;;18.40;99.90;;;;;;5032883;28;20443;-49
2021/09/12 03:42:11;;;;;;;24.13;19.07;;;18.40;99.90;;;;;;5033283;28;20465;-49
2021/09/12 03:44:38;;;;;;;19.30;17.40;;;18.40;99.90;;;;;;5032866;28;20586;-49
2021/09/12 03:47:04;;;;;;;19.30;17.50;;;18.40;99.90;;;;;;5032936;28;20485;-48
2021/09/12 03:49:31;;;;;;;19.13;17.33;;;18.30;99.90;;;;;;5032670;28;20953;-49
2021/09/12 03:51:57;;;;;;;18.83;17.03;;;18.30;99.90;;;;;;5032910;28;20431;-49
2021/09/12 03:54:24;;;;;;;19.93;18.13;;;18.30;99.90;;;;;;5032942;28;20451;-49
2021/09/12 03:56:50;;;;;;;21.30;18.90;;;18.30;99.90;;;;;;5033074;28;20441;-48
2021/09/12 03:59:18;;;;;;;20.10;18.10;;;18.20;99.90;;;;;;5032551;28;20443;-48
2021/09/12 04:01:45;;;;;;;17.70;16.17;;;18.30;99.90;;;;;;5032826;28;20454;-48
2021/09/12 04:04:11;;;;;;;18.10;16.53;;;18.50;99.90;;;;;;5032459;28;21009;-48
2021/09/12 04:06:38;;;;;;;20.67;18.87;;;18.30;99.90;;;;;;5032966;28;20438;-49
2021/09/12 04:09:05;;;;;;;19.23;17.40;;;18.20;99.90;;;;;;5032431;28;20439;-48
2021/09/12 04:11:31;;;;;;;18.93;17.03;;;18.20;99.90;;;;;;5032805;28;20441;-50
2021/09/12 04:13:58;;;;;;;21.27;19.27;;;18.20;99.90;;;;;;5036587;28;20461;-49
2021/09/12 04:16:26;;;;;;;20.53;18.50;;;18.20;99.90;;;;;;5033290;28;20435;-49
2021/09/12 04:18:52;;;;;;;20.27;18.57;;;18.20;99.90;;;;;;5032368;28;20446;-49
2021/09/12 04:21:19;;;;;;;17.10;15.40;;;18.10;99.90;;;;;;5032532;28;20488;-49
2021/09/12 04:23:45;;;;;;;21.17;19.10;;;18.20;99.90;;;;;;5032331;28;20508;-48
2021/09/12 04:26:12;;;;;;;19.83;17.50;;;18.20;99.90;;;;;;5032377;28;20442;-48
2021/09/12 04:28:38;;;;;;;21.17;19.17;;;18.10;99.90;;;;;;5031921;28;20436;-49
2021/09/12 04:31:05;;;;;;;20.33;18.43;;;18.20;99.90;;;;;;5032299;28;20434;-48
2021/09/12 04:33:33;;;;;;;20.50;18.60;;;18.10;99.90;;;;;;5032103;28;20475;-49
2021/09/12 04:36:00;;;;;;;20.23;18.33;;;18.30;99.90;;;;;;5032247;28;20538;-48
2021/09/12 04:38:27;;;;;;;19.87;16.73;;;18.10;99.90;;;;;;5031639;28;20501;-48
2021/09/12 04:40:54;;;;;;;19.10;17.30;;;18.10;99.90;;;;;;5032155;28;20442;-48
2021/09/12 04:43:20;;;;;;;20.10;18.20;;;18.10;99.90;;;;;;5032485;28;20445;-49
2021/09/12 04:45:47;;;;;;;19.67;17.73;;;18.10;99.90;;;;;;5031920;28;20489;-48
2021/09/12 04:48:13;;;;;;;19.03;17.03;;;18.10;99.90;;;;;;5031349;28;20538;-48
2021/09/12 04:50:41;;;;;;;19.47;17.40;;;18.10;99.90;;;;;;5014154;28;20458;-49
2021/09/12 04:53:08;;;;;;;20.50;17.50;;;18.10;99.90;;;;;;5031987;28;20432;-48
2021/09/12 04:55:34;;;;;;;21.10;19.10;;;18.10;99.90;;;;;;5014099;28;20464;-48
2021/09/12 04:58:01;;;;;;;20.30;18.40;;;18.10;99.90;;;;;;5013628;28;20499;-49
2021/09/12 05:00:28;;;;;;;20.93;18.83;;;18.10;99.90;;;;;;5031780;28;20456;-49
2021/09/12 05:02:55;;;;;;;20.03;18.13;;;18.10;99.90;;;;;;5031661;28;21016;-50
2021/09/12 05:05:21;;;;;;;19.57;17.67;;;18.10;99.90;;;;;;5031536;28;20493;-50
2021/09/12 05:07:49;;;;;;;20.57;18.30;;;18.10;99.90;;;;;;5031274;28;20434;-49
2021/09/12 05:10:16;;;;;;;17.87;15.97;;;18.10;99.90;;;;;;5031541;28;20450;-49
2021/09/12 05:12:43;;;;;;;20.40;18.50;;;18.30;99.90;;;;;;5031946;28;20431;-48
2021/09/12 05:15:10;;;;;;;20.27;18.33;;;18.20;99.90;;;;;;5031429;28;20454;-48
2021/09/12 05:17:37;;;;;;;19.90;17.83;;;18.20;99.90;;;;;;5031250;28;20438;-48
2021/09/12 05:20:04;;;;;;;21.23;17.30;;;18.20;99.90;;;;;;5031551;28;20435;-49
2021/09/12 05:22:31;;;;;;;19.67;17.77;;;18.20;99.90;;;;;;5031518;28;20430;-49
2021/09/12 05:24:59;;;;;;;17.83;15.97;;;18.40;99.90;;;;;;5031113;28;20478;-49
2021/09/12 05:27:25;;;;;;;19.93;17.83;;;18.30;99.90;;;;;;5032723;28;20430;-49
2021/09/12 05:29:52;;;;;;;20.90;18.97;;;18.40;99.90;;;;;;5034261;28;20458;-49
2021/09/12 05:32:19;;;;;;;19.00;17.20;;;18.40;99.90;;;;;;5031315;28;20462;-48
2021/09/12 05:34:45;;;;;;;19.67;17.97;;;18.50;99.90;;;;;;5031433;28;20458;-48
2021/09/12 05:37:12;;;;;;;20.47;18.40;;;18.50;99.90;;;;;;5013624;28;20458;-48
2021/09/12 05:39:39;;;;;;;21.60;16.80;;;18.60;99.90;;;;;;5031004;28;20442;-48
2021/09/12 05:42:07;;;;;;;20.10;18.00;;;18.60;99.90;;;;;;5031372;28;20441;-48
2021/09/12 05:44:34;;;;;;;19.70;17.90;;;18.70;99.90;;;;;;5031084;28;21003;-49
2021/09/12 05:47:00;;;;;;;19.30;17.30;;;18.80;99.90;;;;;;5031248;28;20505;-49
2021/09/12 05:49:27;;;;;;;19.90;17.80;;;18.90;99.90;;;;;;5032562;28;20924;-48
2021/09/12 05:51:54;;;;;;;18.80;16.80;;;19.00;99.90;;;;;;5034994;28;20427;-49
2021/09/12 05:54:20;;;;;;;19.57;15.67;;;19.10;99.90;;;;;;5035006;28;20963;-49
2021/09/12 05:56:48;;;;;;;18.03;16.33;;;19.20;99.90;;;;;;5035318;28;20472;-50
2021/09/12 05:59:16;;;;;;;16.00;14.50;;;19.20;99.90;;;;;;5034798;28;20831;-49
2021/09/12 06:01:43;;;;;;;17.33;15.60;;;19.30;99.90;;;;;;5035085;28;20439;-49
2021/09/12 06:04:10;;;;;;;20.17;16.10;;;19.30;99.90;;;;;;5034917;28;20483;-49
2021/09/12 06:06:37;;;;;;;18.53;16.67;;;19.40;99.90;;;;;;5034905;28;20901;-49
2021/09/12 06:09:03;;;;;;;18.07;16.33;;;19.50;99.90;;;;;;5034693;28;20439;-49
2021/09/12 06:11:30;;;;;;;17.33;15.70;;;19.40;99.90;;;;;;5035178;28;20822;-49
2021/09/12 06:13:57;;;;;;;17.53;15.83;;;19.50;99.90;;;;;;5034795;28;20837;-49
2021/09/12 06:16:25;;;;;;;16.87;15.27;;;19.40;99.90;;;;;;5034638;28;20435;-49
2021/09/12 06:18:51;;;;;;;16.43;14.80;;;19.40;99.90;;;;;;5034395;28;20927;-50
2021/09/12 06:21:18;;;;;;;17.23;15.50;;;19.50;99.90;;;;;;5034499;28;20444;-49
2021/09/12 06:23:44;;;;;;;15.90;14.60;;;19.60;99.90;;;;;;5034459;28;20452;-49
2021/09/12 06:26:11;;;;;;;16.37;14.87;;;19.70;99.90;;;;;;5034622;28;20478;-49
2021/09/12 06:28:38;;;;;;;16.87;15.13;;;19.80;99.90;;;;;;5034414;28;20430;-50
2021/09/12 06:31:04;;;;;;;18.27;16.23;;;19.90;99.90;;;;;;5034779;28;20443;-50
2021/09/12 06:33:32;;;;;;;18.07;16.17;;;20.00;99.90;;;;;;5034355;28;20435;-49
2021/09/12 06:35:59;;;;;;;18.07;15.80;;;20.10;99.90;;;;;;5034366;28;20438;-49
2021/09/12 06:38:25;;;;;;;17.20;15.53;;;20.20;99.90;;;;;;5034264;28;20919;-49
2021/09/12 06:40:52;;;;;;;17.47;15.77;;;20.30;99.90;;;;;;5034313;28;20497;-49
2021/09/12 06:43:19;;;;;;;16.60;15.10;;;20.30;99.90;;;;;;5037867;28;20442;-49
2021/09/12 06:45:46;;;;;;;19.03;17.03;;;20.40;99.90;;;;;;5035338;28;20825;-48
2021/09/12 06:48:13;;;;;;;15.90;14.30;;;20.40;99.90;;;;;;5033696;28;20451;-48
2021/09/12 06:50:41;;;;;;;17.83;15.60;;;20.40;99.90;;;;;;5034108;28;20821;-49
2021/09/12 06:53:07;;;;;;;18.40;15.73;;;20.50;99.90;;;;;;5034078;28;20432;-49
2021/09/12 06:55:34;;;;;;;17.50;15.83;;;20.50;99.90;;;;;;5034007;28;20957;-49
2021/09/12 06:58:01;;;;;;;16.70;15.10;;;20.70;99.90;;;;;;5033669;28;20439;-48
2021/09/12 07:00:27;;;;;;;16.07;14.57;;;20.70;99.90;;;;;;5033828;28;20797;-49
2021/09/12 07:02:54;;;;;;;16.80;14.87;;;20.80;99.90;;;;;;5033863;28;20448;-48
2021/09/12 07:05:21;;;;;;;17.60;15.80;;;20.90;99.90;;;;;;5033492;28;20493;-48
2021/09/12 07:07:49;;;;;;;16.87;15.27;;;20.90;99.90;;;;;;5033548;28;20927;-48
2021/09/12 07:10:18;;;;;;;17.03;15.43;;;20.90;99.90;;;;;;5033739;28;20446;-49
2021/09/12 07:12:44;;;;;;;15.80;14.20;;;21.00;99.90;;;;;;5033746;28;20441;-48
2021/09/12 07:15:11;;;;;;;15.50;13.90;;;21.00;99.90;;;;;;5033444;28;20454;-48
2021/09/12 07:17:38;;;;;;;16.10;14.33;;;21.00;99.90;;;;;;5033226;28;20434;-48
2021/09/12 07:20:06;;;;;;;16.77;15.27;;;21.00;99.90;;;;;;5033387;28;20431;-49
2021/09/12 07:22:32;;;;;;;16.27;14.57;;;20.90;99.90;;;;;;5033486;28;20809;-48
2021/09/12 07:25:00;;;;;;;16.77;14.70;;;20.90;99.90;;;;;;5033254;28;20494;-49
2021/09/12 07:27:27;;;;;;;16.07;14.27;;;20.90;99.90;;;;;;5033434;28;20931;-48
2021/09/12 07:29:53;;;;;;;17.70;15.80;;;20.90;99.90;;;;;;5033080;28;20437;-48
2021/09/12 07:32:20;;;;;;;16.90;15.13;;;21.00;99.90;;;;;;5033332;28;20441;-49
2021/09/12 07:34:46;;;;;;;16.03;14.43;;;21.00;99.90;;;;;;5033106;28;20460;-48
2021/09/12 07:37:13;;;;;;;17.40;15.73;;;21.00;99.90;;;;;;5033119;28;20525;-48
2021/09/12 07:39:40;;;;;;;17.20;15.40;;;21.10;99.90;;;;;;5032871;28;20442;-49
2021/09/12 07:42:08;;;;;;;15.63;14.03;;;21.10;99.90;;;;;;5033114;28;20470;-48
2021/09/12 07:44:35;;;;;;;15.60;14.20;;;21.10;99.90;;;;;;5032514;28;20494;-48
2021/09/12 07:47:01;;;;;;;15.53;14.10;;;21.10;99.90;;;;;;5033132;28;20430;-48
2021/09/12 07:49:28;;;;;;;15.70;14.10;;;21.10;99.90;;;;;;5032767;28;20442;-48
2021/09/12 07:51:54;;;;;;;16.77;15.07;;;21.10;99.90;;;;;;5033056;28;20840;-48
2021/09/12 07:54:21;;;;;;;16.27;14.57;;;21.20;99.90;;;;;;5032927;28;20553;-48
2021/09/12 07:56:48;;;;;;;15.47;13.83;;;21.10;99.90;;;;;;5033968;28;20760;-48
2021/09/12 07:59:15;;;;;;;17.50;14.53;;;21.10;99.90;;;;;;5036318;28;20437;-48
2021/09/12 08:01:42;;;;;;;15.60;14.20;;;21.10;99.90;;;;;;5034294;28;20434;-49
2021/09/12 08:04:09;;;;;;;15.03;13.57;;;21.10;99.90;;;;;;5032947;28;20458;-49
2021/09/12 08:06:36;;;;;;;16.83;15.17;;;21.20;99.90;;;;;;5032483;28;20819;-49
2021/09/12 08:09:03;;;;;;;16.03;14.43;;;21.20;99.90;;;;;;5031987;28;20434;-49
2021/09/12 08:11:29;;;;;;;16.57;15.00;;;21.20;99.90;;;;;;5031976;28;20446;-49
2021/09/12 08:13:56;;;;;;;16.13;14.47;;;21.30;99.90;;;;;;5032384;28;20469;-49
2021/09/12 08:16:24;;;;;;;16.50;14.70;;;21.30;99.90;;;;;;5032230;28;20505;-49
2021/09/12 08:18:50;;;;;;;15.87;14.27;;;21.40;99.90;;;;;;5031950;28;20434;-47
2021/09/12 08:21:17;;;;;;;18.00;15.97;;;21.50;99.90;;;;;;5032189;28;20439;-47
2021/09/12 08:23:43;;;;;;;18.93;16.97;;;21.70;99.90;;;;;;5032167;28;20889;-48
2021/09/12 08:26:10;;;;;;;19.83;15.73;;;21.40;99.90;;;;;;5032160;28;20478;-49
2021/09/12 08:28:37;;;;;;;16.80;15.17;;;21.60;99.90;;;;;;5031379;28;20443;-47
2021/09/12 08:31:03;;;;;;;17.37;15.70;;;21.60;99.90;;;;;;5032510;28;20466;-47
2021/09/12 08:33:31;;;;;;;15.83;14.33;;;21.70;99.90;;;;;;5031647;28;20444;-47
2021/09/12 08:35:58;;;;;;;15.70;14.20;;;21.90;99.90;;;;;;5031649;28;20460;-47
2021/09/12 08:38:24;;;;;;;15.97;14.37;;;21.80;99.90;;;;;;5031544;28;20461;-47
2021/09/12 08:40:54;;;;;;;15.17;13.63;;;21.70;99.90;;;;;;5031991;28;20436;-48
2021/09/12 08:43:21;;;;;;;16.70;15.00;;;21.80;99.90;;;;;;5031595;28;20439;-47
2021/09/12 08:45:49;;;;;;;15.43;14.00;;;21.80;99.90;;;;;;5031369;28;20485;-48
2021/09/12 08:48:16;;;;;;;15.40;13.90;;;21.80;99.90;;;;;;5030967;28;20853;-48
2021/09/12 08:50:44;;;;;;;17.30;15.40;;;21.80;99.90;;;;;;5031413;28;20430;-48
2021/09/12 08:53:11;;;;;;;18.23;15.77;;;21.80;99.90;;;;;;5031578;28;20788;-48
2021/09/12 08:55:38;;;;;;;17.53;15.70;;;21.80;99.90;;;;;;5031560;28;20474;-48
2021/09/12 08:58:05;;;;;;;16.73;14.90;;;21.80;99.90;;;;;;5031406;28;20435;-48
2021/09/12 09:00:32;;;;;;;18.33;16.03;;;21.80;99.90;;;;;;5031519;28;20435;-48
2021/09/12 09:03:00;;;;;;;18.43;16.53;;;21.80;99.90;;;;;;5031394;28;20443;-48
2021/09/12 09:05:31;;;;;;;18.43;15.50;;;21.80;99.90;;;;;;5031524;28;21077;-48
2021/09/12 09:08:10;;;;;;;16.80;15.30;;;21.80;99.90;;;;;;5030846;28;20540;-48
2021/09/12 09:10:39;;;;;;;16.70;14.80;;;21.80;99.90;;;;;;5031446;28;20439;-48
2021/09/12 09:13:23;;;;;;;16.00;14.50;;;21.90;99.90;;;;;;5033389;28;20844;-48
2021/09/12 09:15:50;;;;;;;17.23;15.40;;;21.90;99.90;;;;;;5033654;28;20439;-47
2021/09/12 09:18:17;;;;;;;15.50;14.00;;;22.00;99.90;;;;;;5012873;28;20474;-48
2021/09/12 09:20:43;;;;;;;16.10;13.83;;;22.20;99.90;;;;;;5030772;28;20434;-48
2021/09/12 09:23:11;;;;;;;15.27;13.73;;;22.40;99.90;;;;;;5031223;28;20442;-48
2021/09/12 09:25:38;;;;;;;15.20;13.70;;;22.60;99.90;;;;;;5035036;28;20479;-48
2021/09/12 09:28:06;;;;;;;15.70;14.27;;;22.70;99.90;;;;;;5035399;28;20428;-48
2021/09/12 09:30:36;;;;;;;15.90;14.27;;;22.80;99.90;;;;;;5035415;28;20483;-48
2021/09/12 09:33:17;;;;;;;15.63;14.23;;;22.90;99.90;;;;;;5035213;28;20809;-48
2021/09/12 09:35:51;;;;;;;15.17;13.77;;;22.90;99.90;;;;;;5035410;28;20455;-48
2021/09/12 09:38:20;;;;;;;14.87;13.43;;;22.90;99.90;;;;;;5034735;28;20436;-48
2021/09/12 09:40:59;;;;;;;15.80;14.40;;;23.00;99.90;;;;;;5035171;28;20736;-49
2021/09/12 09:43:36;;;;;;;17.13;15.43;;;23.00;99.90;;;;;;5034991;28;20446;-48
2021/09/12 09:46:03;;;;;;;16.53;14.80;;;23.00;99.90;;;;;;5035218;28;20481;-48
2021/09/12 09:48:34;;;;;;;16.63;14.93;;;23.00;99.90;;;;;;5034719;28;20761;-48
2021/09/12 09:51:01;;;;;;;15.67;14.27;;;23.00;99.90;;;;;;5034594;28;20472;-48
2021/09/12 09:53:34;;;;;;;18.30;16.57;;;23.00;99.90;;;;;;5034751;28;20433;-49
2021/09/12 09:56:02;;;;;;;16.10;14.70;;;23.10;99.90;;;;;;5035201;28;20432;-49
2021/09/12 09:58:31;;;;;;;13.40;12.20;;;23.20;99.90;;;;;;5034655;28;20441;-48
2021/09/12 10:00:58;;;;;;;14.90;13.50;;;23.30;99.90;;;;;;5035239;28;20427;-48
2021/09/12 10:03:25;;;;;;;16.83;12.53;;;23.30;99.90;;;;;;5034733;28;20433;-48
2021/09/12 10:05:52;;;;;;;16.37;14.67;;;23.40;99.90;;;;;;5034804;28;20996;-48
2021/09/12 10:08:19;;;;;;;16.33;12.60;;;23.40;99.90;;;;;;5034341;28;20436;-48
2021/09/12 10:10:47;;;;;;;14.80;13.33;;;23.50;99.90;;;;;;5034593;28;20447;-48
2021/09/12 10:13:14;;;;;;;14.27;12.87;;;23.60;99.90;;;;;;5034294;28;20839;-48
2021/09/12 10:15:42;;;;;;;14.37;13.07;;;23.70;99.90;;;;;;5034604;28;20461;-48
2021/09/12 10:18:10;;;;;;;14.13;11.87;;;23.70;99.90;;;;;;5034546;28;20442;-48
2021/09/12 10:20:38;;;;;;;14.87;13.30;;;23.80;99.90;;;;;;5034605;28;20449;-48
2021/09/12 10:23:08;;;;;;;15.87;13.37;;;23.80;99.90;;;;;;5034107;28;20798;-48
2021/09/12 10:25:56;;;;;;;13.87;12.53;;;23.90;99.90;;;;;;5034196;28;20533;-48
2021/09/12 10:28:29;;;;;;;14.07;12.83;;;23.90;99.90;;;;;;5017537;28;20509;-48
2021/09/12 10:30:56;;;;;;;13.47;12.27;;;23.90;99.90;;;;;;5036112;28;20916;-49
2021/09/12 10:33:25;;;;;;;12.90;11.70;;;24.00;99.90;;;;;;5034168;28;20435;-49
2021/09/12 10:35:58;;;;;;;13.90;12.60;;;24.00;99.90;;;;;;5033657;28;20842;-49
2021/09/12 10:38:27;;;;;;;12.17;11.00;;;24.10;99.90;;;;;;5033917;28;20435;-48
2021/09/12 10:41:18;;;;;;;12.10;11.00;;;24.10;99.90;;;;;;5034068;28;20803;-48
2021/09/12 10:43:47;;;;;;;13.17;11.87;;;24.10;99.90;;;;;;5034065;28;20460;-49
2021/09/12 10:46:20;;;;;;;17.93;12.47;;;24.10;99.90;;;;;;5034244;28;20497;-47
2021/09/12 10:49:12;;;;;;;12.70;11.50;;;24.20;99.90;;;;;;5033208;28;20435;-49
2021/09/12 10:51:44;;;;;;;11.90;10.80;;;24.10;99.90;;;;;;5034049;28;20512;-48
2021/09/12 10:54:11;;;;;;;14.73;11.60;;;24.20;99.90;;;;;;5033637;28;20769;-48
2021/09/12 10:56:40;;;;;;;11.60;10.57;;;24.10;99.90;;;;;;5033892;28;20432;-49
2021/09/12 10:59:10;;;;;;;12.73;11.53;;;24.20;99.90;;;;;;5033325;28;20981;-48
2021/09/12 11:01:40;;;;;;;11.50;10.50;;;24.30;99.90;;;;;;5015192;28;20458;-48
2021/09/12 11:04:07;;;;;;;11.53;10.43;;;24.10;99.90;;;;;;5033725;28;20461;-48
2021/09/12 11:06:35;;;;;;;10.80;9.80;;;24.10;99.90;;;;;;5033568;28;20482;-48
2021/09/12 11:09:05;;;;;;;11.90;10.70;;;24.00;99.90;;;;;;5032956;28;20440;-48
2021/09/12 11:11:32;;;;;;;11.50;10.27;;;24.10;99.90;;;;;;5033862;28;20454;-48
2021/09/12 11:14:00;;;;;;;9.70;8.70;;;24.20;99.90;;;;;;5033322;28;20474;-48
2021/09/12 11:16:28;;;;;;;10.27;9.40;;;24.20;99.90;;;;;;5033641;28;20924;-49
2021/09/12 11:18:58;;;;;;;10.10;9.20;;;24.20;99.90;;;;;;5032752;28;20478;-48
2021/09/12 11:21:37;;;;;;;10.13;9.13;;;24.10;99.90;;;;;;5033357;28;21006;-48
2021/09/12 11:24:07;;;;;;;8.77;8.07;;;24.30;99.90;;;;;;5033123;28;20450;-48
2021/09/12 11:26:42;;;;;;;11.97;9.77;;;24.20;99.90;;;;;;5033175;28;20983;-48
2021/09/12 11:29:12;;;;;;;10.30;8.50;;;24.20;99.90;;;;;;5033004;28;20811;-48
2021/09/12 11:31:40;;;;;;;9.50;8.60;;;24.20;99.90;;;;;;5033657;28;20963;-49
2021/09/12 11:34:07;;;;;;;9.57;8.57;;;24.20;99.90;;;;;;5033289;28;20970;-48
2021/09/12 11:36:42;;;;;;;8.40;7.57;;;24.20;99.90;;;;;;5033362;28;20434;-48
2021/09/12 11:39:09;;;;;;;14.03;7.93;;;24.20;99.90;;;;;;5032927;28;20927;-49
2021/09/12 11:41:36;;;;;;;8.07;7.13;;;24.20;99.90;;;;;;5032956;28;20928;-48
2021/09/12 11:44:02;;;;;;;8.67;7.90;;;24.10;99.90;;;;;;5034468;28;20463;-48
2021/09/12 11:46:30;;;;;;;7.97;7.27;;;24.00;99.90;;;;;;5032343;28;20482;-48
2021/09/12 11:48:59;;;;;;;12.43;8.70;;;23.90;99.90;;;;;;5032984;28;20435;-48
2021/09/12 11:51:31;;;;;;;9.60;8.60;;;23.80;99.90;;;;;;5032653;28;20478;-48
2021/09/12 11:54:08;;;;;;;8.30;7.60;;;23.80;99.90;;;;;;5032406;28;20824;-48
2021/09/12 11:56:35;;;;;;;8.20;7.40;;;23.80;99.90;;;;;;5015326;28;20449;-48
2021/09/12 11:59:03;;;;;;;8.30;7.50;;;23.90;99.90;;;;;;5032737;28;20463;-48
2021/09/12 12:01:32;;;;;;;8.13;7.33;;;23.90;99.90;;;;;;5032857;28;20439;-48
2021/09/12 12:04:02;;;;;;;8.70;7.50;;;24.00;99.90;;;;;;5032853;28;20466;-48
2021/09/12 12:06:29;;;;;;;7.90;7.20;;;24.30;99.90;;;;;;5032436;28;20479;-48
2021/09/12 12:09:07;;;;;;;7.93;7.23;;;24.10;99.90;;;;;;5032022;28;20430;-48
2021/09/12 12:11:34;;;;;;;6.97;6.30;;;24.20;99.90;;;;;;5032400;28;20477;-48
2021/09/12 12:14:02;;;;;;;9.63;6.40;;;24.20;99.90;;;;;;5032091;28;20466;-49
2021/09/12 12:16:28;;;;;;;6.80;6.10;;;24.40;99.90;;;;;;5032148;28;20443;-47
2021/09/12 12:19:03;;;;;;;6.67;6.13;;;24.40;99.90;;;;;;5032130;28;20441;-49
2021/09/12 12:21:32;;;;;;;7.00;6.40;;;24.50;99.90;;;;;;5031829;28;20444;-48
2021/09/12 12:24:08;;;;;;;7.70;7.00;;;24.50;99.90;;;;;;5032012;28;20455;-47
2021/09/12 12:26:40;;;;;;;7.13;6.43;;;24.60;99.90;;;;;;5032025;28;20482;-48
2021/09/12 12:29:07;;;;;;;7.13;6.53;;;24.50;99.90;;;;;;5031588;28;20522;-48
2021/09/12 12:31:35;;;;;;;7.30;6.70;;;24.50;99.90;;;;;;5032490;28;20443;-48